Akhiok, AK

4:26 PM AKDT on September 22, 2014 (GMT -0800)
RAWS CAPE KIAVAK AK US | Change Station
CLOSE
Current Station
Personal Weather Station
Location: Kodiak, AK
Elevation: 100 ft
Nearby Weather Stations

Elev 100 ft 57.00 °N, 153.54 °W | Updated 31 minutes ago

Mostly Cloudy
Mostly Cloudy
54 °F
Feels Like 54 °F
N
15
Wind Variable Wind from ENE
Gusts 21.0 mph

Today
High -- | Low -- °F
--% Chance of Precip.
Yesterday
High -- | Low -- °F
Precip. -- in
8:02 AM 8:15 PM
Waning Crescent, 1% visible
Pressure 29.69 in
Visibility 10.0 miles
Clouds Mostly Cloudy 6500 ft
Dew Point 43 °F
Humidity 66%
Rainfall 0.03 in
Snow Depth 1 in , 0 in , 20 in
UV 1 out of 12
Pollen Not available.
Air Quality Not available.
Flu Activity Not available.
METAR PADQ 222353Z 08008KT 10SM BKN065 12/04 A2968 RMK AO2 SLP052 T01220039 10122 20083 51019 $

More Conditions Fewer Conditions

Pressure 29.69 in
Visibility 10.0 miles
Clouds Mostly Cloudy 6500 ft
Dew Point 43 °F
Humidity 66%
Rainfall 0.03 in
Snow Depth 1 in , 0 in , 20 in
UV 1 out of 12
Pollen Not available.
Air Quality Not available.
Flu Activity Not available.
METAR PADQ 222353Z 08008KT 10SM BKN065 12/04 A2968 RMK AO2 SLP052 T01220039 10122 20083 51019 $

More Conditions Fewer Conditions

10-Day Weather Forecast

Almanac

Astronomy

Sep. 22, 2014 Rise Set
Actual Time 8:02 AM AKDT 8:15 PM AKDT
Civil Twilight 7:24 AM AKDT 8:53 PM AKDT
Nautical Twilight 6:38 AM AKDT 9:38 PM AKDT
Astronomical Twilight 5:49 AM AKDT 10:26 PM AKDT
Moon 6:30 AM AKDT (9/22) 7:33 PM AKDT (9/22)
Length of Visible Light 13h 29m
Length of Day
12h 12m
Tomorrow will be 4m 47s shorter.
Waning Crescent, 1% of the Moon is Illuminated
Today
Waning Crescent
Sep 24
New
Oct 1
First Quarter
Oct 8
Full
Oct 15
Last Quarter

Today's Extremes

State Highs State Lows

Community

WunderPhotos

Upload Photos

1,755,574 photos uploaded!

Nearby

Snow Depth

Station Depth Elevation
Pargon Creek 1 in 300 ft
Moraine 0 in 2100 ft
Cooper Lake 20 in 1200 ft
Mcneil Canyon 1 in 1320 ft
Grouse Creek Divide 0 in 700 ft

Earthquake Activity

City Distance Mag. Time & Date
No recent earthquake activity has been reported nearby.
Minimum magnitude displayed is 2.5.

Coastal Water Temperatures

Place Temperature
No Stations Reporting

Nearby Weather Stations